Time;durP1;ratioP1;P1;durP2;ratioP2;P2;SDS_P1;SDS_P2;PMS_P1;PMS_P2;Temp;Humidity;BMP_temperature;BMP_pressure;BME280_temperature;BME280_humidity;BME280_pressure;Samples;Min_cycle;Max_cycle;Signal;HPM_P1;HPM_P2
2023/05/20 00:00:50;;;;;;;4.47;2.03;;;15.20;95.60;;;;;;4175438;28;20029;-61
2023/05/20 00:02:50;;;;;;;3.17;1.67;;;15.10;95.80;;;;;;4175273;28;20037;-61
2023/05/20 00:04:51;;;;;;;4.55;1.67;;;15.00;96.00;;;;;;4179213;28;20456;-61
2023/05/20 00:06:53;;;;;;;3.78;1.58;;;14.90;96.40;;;;;;4176209;28;20033;-61
2023/05/20 00:08:54;;;;;;;2.30;1.60;;;14.80;96.60;;;;;;4171570;28;20480;-61
2023/05/20 00:10:55;;;;;;;3.10;1.65;;;14.70;96.70;;;;;;4172317;28;20037;-61
2023/05/20 00:12:55;;;;;;;3.88;1.55;;;14.60;97.00;;;;;;4176261;28;20045;-61
2023/05/20 00:14:56;;;;;;;2.92;1.38;;;14.60;97.10;;;;;;4175729;28;20042;-61
2023/05/20 00:16:57;;;;;;;2.08;1.35;;;14.50;97.20;;;;;;4174228;28;20040;-65
2023/05/20 00:18:57;;;;;;;2.67;1.67;;;14.60;97.20;;;;;;4175387;28;20112;-63
2023/05/20 00:20:58;;;;;;;2.08;1.50;;;14.50;97.00;;;;;;4172140;28;20158;-61
2023/05/20 00:22:58;;;;;;;3.30;1.90;;;14.50;97.30;;;;;;4175467;28;20124;-61
2023/05/20 00:24:59;;;;;;;2.05;1.60;;;14.50;97.30;;;;;;4176027;28;20040;-61
2023/05/20 00:27:01;;;;;;;2.38;1.58;;;14.40;97.50;;;;;;4172900;28;20036;-61
2023/05/20 00:29:02;;;;;;;3.15;1.67;;;14.40;97.60;;;;;;4176104;28;20130;-61
2023/05/20 00:31:03;;;;;;;2.45;1.58;;;14.40;98.40;;;;;;4173609;28;20621;-61
2023/05/20 00:33:04;;;;;;;3.10;1.65;;;14.40;99.00;;;;;;4172536;28;20040;-61
2023/05/20 00:35:05;;;;;;;2.13;1.45;;;14.30;97.40;;;;;;4175568;28;20090;-62
2023/05/20 00:37:06;;;;;;;2.33;1.45;;;14.40;97.90;;;;;;4174441;28;20069;-61
2023/05/20 00:39:06;;;;;;;1.83;1.40;;;14.40;98.00;;;;;;4175828;28;20372;-61
2023/05/20 00:41:07;;;;;;;2.42;1.50;;;14.50;98.10;;;;;;4171908;28;20107;-61
2023/05/20 00:43:09;;;;;;;2.92;1.52;;;14.50;98.00;;;;;;4175886;28;20044;-61
2023/05/20 00:45:11;;;;;;;1.77;1.48;;;14.50;98.30;;;;;;4172599;28;20041;-62
2023/05/20 00:47:11;;;;;;;2.23;1.37;;;14.50;97.80;;;;;;4174464;28;20033;-61
2023/05/20 00:49:12;;;;;;;2.63;1.55;;;14.60;98.00;;;;;;4176064;28;20043;-61
2023/05/20 00:51:13;;;;;;;2.58;1.70;;;14.50;97.70;;;;;;4174753;28;20035;-61
2023/05/20 00:53:17;;;;;;;2.15;1.50;;;14.50;97.80;;;;;;4174301;28;20029;-61
2023/05/20 00:55:18;;;;;;;2.58;1.65;;;14.50;97.90;;;;;;4174550;28;20116;-61
2023/05/20 00:57:19;;;;;;;1.95;1.33;;;14.50;99.70;;;;;;4172226;28;20033;-61
2023/05/20 00:59:20;;;;;;;2.03;1.67;;;14.50;99.90;;;;;;4175580;28;20064;-61
2023/05/20 01:01:20;;;;;;;2.20;1.55;;;14.50;99.80;;;;;;4171685;28;20029;-61
2023/05/20 01:03:21;;;;;;;2.75;1.80;;;14.60;99.90;;;;;;4167428;28;20264;-61
2023/05/20 01:05:22;;;;;;;4.05;1.90;;;14.60;99.90;;;;;;4177595;28;20041;-61
2023/05/20 01:07:24;;;;;;;3.83;1.45;;;14.60;99.50;;;;;;4171880;28;20051;-61
2023/05/20 01:09:24;;;;;;;3.08;1.75;;;14.60;99.90;;;;;;4175702;28;20048;-61
2023/05/20 01:11:36;;;;;;;3.33;1.95;;;14.60;99.90;;;;;;4171746;28;20040;-61
2023/05/20 01:13:46;;;;;;;2.22;1.52;;;14.60;99.90;;;;;;4172682;28;20075;-61
2023/05/20 01:15:48;;;;;;;1.52;1.30;;;14.60;99.90;;;;;;4171171;28;20425;-61
2023/05/20 01:17:56;;;;;;;3.40;1.98;;;14.60;99.90;;;;;;4174658;28;20037;-61
2023/05/20 01:19:58;;;;;;;2.10;1.35;;;14.60;99.90;;;;;;4175733;28;21773;-61
2023/05/20 01:22:04;;;;;;;2.75;1.70;;;14.60;99.90;;;;;;4171190;28;21177;-61
2023/05/20 01:24:05;;;;;;;3.55;1.73;;;14.60;99.90;;;;;;4175464;28;20065;-60
2023/05/20 01:26:06;;;;;;;3.08;1.90;;;14.60;99.90;;;;;;4174223;28;20056;-61
2023/05/20 01:28:08;;;;;;;3.30;2.05;;;14.60;99.90;;;;;;4173536;28;20381;-61
2023/05/20 01:30:10;;;;;;;3.15;1.48;;;14.60;99.90;;;;;;4175174;28;20440;-61
2023/05/20 01:32:27;;;;;;;3.95;1.80;;;14.60;99.90;;;;;;4172241;28;20147;-61
2023/05/20 01:34:28;;;;;;;2.83;2.03;;;14.60;99.90;;;;;;4172745;28;20040;-61
2023/05/20 01:36:30;;;;;;;3.05;1.77;;;14.50;99.90;;;;;;4173628;28;20021;-60
2023/05/20 01:38:31;;;;;;;4.93;2.22;;;14.50;99.90;;;;;;4172890;28;20123;-61
2023/05/20 01:40:33;;;;;;;5.13;2.10;;;14.50;99.90;;;;;;4173964;28;20025;-61
2023/05/20 01:42:34;;;;;;;3.40;1.48;;;14.50;99.90;;;;;;4172752;28;20048;-61
2023/05/20 01:44:36;;;;;;;2.63;1.70;;;14.50;99.90;;;;;;4175140;28;20365;-61
2023/05/20 01:46:36;;;;;;;4.05;1.98;;;14.50;99.90;;;;;;4171967;28;20039;-61
2023/05/20 01:48:37;;;;;;;3.45;1.60;;;14.50;99.90;;;;;;4185191;28;20035;-61
2023/05/20 01:50:39;;;;;;;3.25;1.92;;;14.50;99.90;;;;;;4174407;28;20029;-61
2023/05/20 01:52:40;;;;;;;3.40;1.90;;;14.50;99.90;;;;;;4172787;28;20067;-61
2023/05/20 01:54:40;;;;;;;2.30;1.70;;;14.50;99.90;;;;;;4174697;28;20033;-62
2023/05/20 01:56:41;;;;;;;2.00;1.67;;;14.40;99.90;;;;;;4171897;28;20033;-61
2023/05/20 01:58:41;;;;;;;4.88;1.42;;;14.40;99.90;;;;;;4172468;28;20036;-61
2023/05/20 02:00:42;;;;;;;3.55;1.70;;;14.40;99.90;;;;;;4174457;28;20037;-61
2023/05/20 02:02:43;;;;;;;3.58;1.90;;;14.40;99.90;;;;;;4173953;28;20087;-61
2023/05/20 02:04:47;;;;;;;3.72;2.10;;;14.40;99.90;;;;;;4172839;28;20041;-61
2023/05/20 02:06:47;;;;;;;2.35;1.67;;;14.40;99.90;;;;;;4172357;28;20037;-61
2023/05/20 02:08:48;;;;;;;7.30;2.28;;;14.40;99.90;;;;;;4173583;28;20443;-61
2023/05/20 02:10:48;;;;;;;2.65;2.05;;;14.40;99.90;;;;;;4173694;28;20040;-61
2023/05/20 02:12:49;;;;;;;2.05;1.50;;;14.30;99.90;;;;;;4173972;28;20037;-61
2023/05/20 02:14:50;;;;;;;4.63;1.52;;;14.30;99.90;;;;;;4173448;28;20035;-60
2023/05/20 02:16:50;;;;;;;3.80;2.03;;;14.30;99.90;;;;;;4173328;28;20435;-61
2023/05/20 02:18:51;;;;;;;3.75;1.85;;;14.30;99.90;;;;;;4175479;28;20045;-61
2023/05/20 02:20:52;;;;;;;2.05;1.60;;;14.30;99.90;;;;;;4175266;28;20503;-61
2023/05/20 02:22:52;;;;;;;5.22;2.00;;;14.20;99.90;;;;;;4173743;28;20047;-61
2023/05/20 02:24:53;;;;;;;1.90;1.60;;;14.20;99.90;;;;;;4177512;28;20032;-61
2023/05/20 02:26:56;;;;;;;4.38;1.83;;;14.20;99.90;;;;;;4172696;28;20038;-61
2023/05/20 02:28:56;;;;;;;;;;;14.20;99.90;;;;;;4177897;28;20503;-61
2023/05/20 02:30:57;;;;;;;1.80;1.45;;;14.20;99.90;;;;;;4175126;28;20017;-61
2023/05/20 02:32:58;;;;;;;4.25;2.00;;;14.20;99.90;;;;;;4175053;28;20402;-61
2023/05/20 02:34:59;;;;;;;3.15;1.95;;;14.20;99.90;;;;;;4177618;28;20116;-64
2023/05/20 02:37:00;;;;;;;3.00;1.92;;;14.20;99.90;;;;;;4177061;28;20102;-62
2023/05/20 02:39:01;;;;;;;4.40;1.85;;;14.20;99.90;;;;;;4177942;28;20151;-61
2023/05/20 02:41:03;;;;;;;3.85;1.80;;;14.20;99.90;;;;;;4176936;28;20076;-61
2023/05/20 02:43:04;;;;;;;4.50;1.90;;;14.10;99.90;;;;;;4173640;28;20041;-61
2023/05/20 02:45:05;;;;;;;2.95;1.73;;;14.10;99.90;;;;;;4177495;28;20369;-61
2023/05/20 02:47:06;;;;;;;2.60;1.80;;;14.10;99.90;;;;;;4175278;28;20029;-61
2023/05/20 02:49:06;;;;;;;2.80;1.70;;;14.10;99.90;;;;;;4177912;28;20036;-61
2023/05/20 02:51:07;;;;;;;4.50;1.90;;;14.00;99.90;;;;;;4177195;28;20040;-61
2023/05/20 02:53:07;;;;;;;3.20;1.70;;;14.00;99.90;;;;;;4175680;28;20032;-61
2023/05/20 02:55:08;;;;;;;4.20;1.98;;;14.00;99.90;;;;;;4177278;28;20055;-64
2023/05/20 02:57:09;;;;;;;3.42;1.70;;;14.00;99.90;;;;;;4175921;28;20468;-61
2023/05/20 02:59:09;;;;;;;2.47;1.60;;;14.00;99.90;;;;;;4176822;28;21441;-61
2023/05/20 03:01:10;;;;;;;3.10;1.80;;;14.00;99.90;;;;;;4176721;28;20109;-61
2023/05/20 03:03:12;;;;;;;2.60;1.80;;;13.90;99.90;;;;;;4177118;28;20112;-61
2023/05/20 03:05:13;;;;;;;3.20;1.47;;;14.00;99.90;;;;;;4176352;28;20029;-61
2023/05/20 03:07:16;;;;;;;4.28;1.70;;;13.90;99.90;;;;;;4175205;28;20056;-61
2023/05/20 03:09:19;;;;;;;4.00;1.70;;;14.00;99.90;;;;;;4176224;28;20102;-61
2023/05/20 03:11:20;;;;;;;2.47;1.70;;;14.00;99.90;;;;;;4175632;28;20380;-61
2023/05/20 03:13:21;;;;;;;3.20;1.80;;;14.00;99.90;;;;;;4176655;28;20029;-61
2023/05/20 03:15:21;;;;;;;2.42;1.40;;;14.00;99.90;;;;;;4174973;28;20132;-60
2023/05/20 03:17:22;;;;;;;4.13;1.70;;;13.90;99.90;;;;;;4175960;28;20033;-61
2023/05/20 03:19:23;;;;;;;2.85;1.85;;;14.00;99.90;;;;;;4176205;28;20073;-60
2023/05/20 03:21:24;;;;;;;5.05;1.83;;;14.00;99.90;;;;;;4176789;28;20044;-61
2023/05/20 03:23:24;;;;;;;2.92;1.63;;;14.00;99.90;;;;;;4176394;28;20052;-61
2023/05/20 03:25:25;;;;;;;2.90;2.00;;;13.90;99.90;;;;;;4176272;28;20539;-61
2023/05/20 03:27:26;;;;;;;4.20;2.10;;;13.90;99.90;;;;;;4176798;28;20111;-61
2023/05/20 03:29:26;;;;;;;2.92;1.80;;;13.90;99.90;;;;;;4174177;28;20064;-61
2023/05/20 03:31:27;;;;;;;3.80;1.85;;;13.90;99.90;;;;;;4174192;28;20547;-60
2023/05/20 03:33:28;;;;;;;3.90;1.75;;;13.80;99.90;;;;;;4176465;28;20033;-61
2023/05/20 03:35:29;;;;;;;3.85;1.83;;;13.70;99.90;;;;;;4176235;28;20040;-65
2023/05/20 03:37:30;;;;;;;4.03;1.90;;;13.60;99.90;;;;;;4175237;28;20435;-61
2023/05/20 03:39:30;;;;;;;3.13;1.70;;;13.50;99.90;;;;;;4176698;28;20091;-61
2023/05/20 03:41:31;;;;;;;2.90;1.73;;;13.40;99.90;;;;;;4175958;28;20057;-61
2023/05/20 03:43:32;;;;;;;2.25;1.60;;;13.40;99.90;;;;;;4172414;28;20052;-61
2023/05/20 03:45:33;;;;;;;2.78;1.67;;;13.30;99.90;;;;;;4175260;28;20045;-61
2023/05/20 03:47:33;;;;;;;3.08;1.55;;;13.30;99.90;;;;;;4175158;28;20111;-61
2023/05/20 03:49:34;;;;;;;3.45;1.90;;;13.30;99.90;;;;;;4176822;28;20029;-61
2023/05/20 03:51:35;;;;;;;2.83;1.65;;;13.30;99.90;;;;;;4174184;28;20029;-61
2023/05/20 03:53:35;;;;;;;2.45;1.58;;;13.30;99.90;;;;;;4175073;28;20033;-61
2023/05/20 03:55:37;;;;;;;2.28;1.73;;;13.30;99.90;;;;;;4175679;28;20029;-61
2023/05/20 03:57:38;;;;;;;3.42;1.67;;;13.40;99.90;;;;;;4175608;28;20033;-61
2023/05/20 03:59:39;;;;;;;2.65;1.85;;;13.40;99.90;;;;;;4175594;28;20490;-60
2023/05/20 04:01:39;;;;;;;2.45;1.63;;;13.40;99.90;;;;;;4172791;28;20043;-60
2023/05/20 04:03:43;;;;;;;3.10;1.95;;;13.40;99.90;;;;;;4176366;28;20056;-61
2023/05/20 04:05:43;;;;;;;3.28;1.75;;;13.50;99.90;;;;;;4172983;28;20036;-61
2023/05/20 04:07:44;;;;;;;4.40;1.90;;;13.50;99.90;;;;;;4174335;28;20060;-60
2023/05/20 04:09:45;;;;;;;3.22;1.50;;;13.50;99.90;;;;;;4176791;28;20166;-60
2023/05/20 04:11:45;;;;;;;2.50;1.50;;;13.50;99.90;;;;;;4174881;28;20131;-61
2023/05/20 04:13:46;;;;;;;3.40;1.90;;;13.60;99.90;;;;;;4165675;28;20072;-61
2023/05/20 04:15:47;;;;;;;1.98;1.55;;;13.60;99.90;;;;;;4174386;28;20392;-60
2023/05/20 04:17:47;;;;;;;8.75;2.13;;;13.60;99.90;;;;;;4174226;28;20472;-61
2023/05/20 04:19:48;;;;;;;2.85;1.98;;;13.60;99.90;;;;;;4176044;28;20056;-60
2023/05/20 04:21:49;;;;;;;2.83;1.88;;;13.60;99.90;;;;;;4172517;28;20029;-61
2023/05/20 04:23:49;;;;;;;4.30;1.90;;;13.50;99.90;;;;;;4173169;28;20044;-61
2023/05/20 04:25:50;;;;;;;6.38;2.15;;;13.50;99.90;;;;;;4172512;28;20153;-61
2023/05/20 04:27:53;;;;;;;3.83;1.98;;;13.30;99.90;;;;;;4174300;28;20103;-60
2023/05/20 04:29:53;;;;;;;;;;;13.30;99.90;;;;;;4175842;28;20036;-60
2023/05/20 04:31:57;;;;;;;4.13;2.05;;;13.30;99.90;;;;;;4175445;28;19909;-61
2023/05/20 04:33:58;;;;;;;2.65;1.75;;;13.30;99.90;;;;;;4176101;28;20068;-60
2023/05/20 04:35:59;;;;;;;3.33;1.83;;;13.30;99.90;;;;;;4174899;28;20087;-61
2023/05/20 04:38:00;;;;;;;3.30;1.60;;;13.30;99.90;;;;;;4173832;28;20064;-60
2023/05/20 04:40:02;;;;;;;2.75;1.77;;;13.40;99.90;;;;;;4174770;28;20037;-61
2023/05/20 04:42:03;;;;;;;3.70;2.10;;;13.30;99.90;;;;;;4174779;28;20036;-61
2023/05/20 04:44:05;;;;;;;4.20;1.98;;;13.30;99.90;;;;;;4175142;28;20029;-61
2023/05/20 04:46:05;;;;;;;2.35;1.48;;;13.30;99.90;;;;;;4173330;28;20041;-61
2023/05/20 04:48:06;;;;;;;3.75;2.10;;;13.30;99.90;;;;;;4175979;28;20384;-61
2023/05/20 04:50:11;;;;;;;3.17;1.90;;;13.30;99.90;;;;;;4172237;28;20078;-61
2023/05/20 04:52:11;;;;;;;3.35;1.98;;;13.30;99.90;;;;;;4172410;28;20041;-61
2023/05/20 04:54:13;;;;;;;7.13;2.20;;;13.20;99.90;;;;;;4189805;28;20522;-61
2023/05/20 04:56:14;;;;;;;4.65;2.20;;;13.20;99.90;;;;;;4172665;28;20036;-61
2023/05/20 04:58:16;;;;;;;3.83;1.98;;;13.30;99.90;;;;;;4175650;28;20033;-62
2023/05/20 05:00:16;;;;;;;3.13;1.90;;;13.30;99.90;;;;;;4171155;28;20100;-61
2023/05/20 05:02:17;;;;;;;4.43;2.15;;;13.20;99.90;;;;;;4173910;28;20122;-61
2023/05/20 05:04:17;;;;;;;4.50;1.77;;;13.30;99.90;;;;;;4175338;28;20037;-61
2023/05/20 05:06:18;;;;;;;3.13;2.00;;;13.30;99.90;;;;;;4171946;28;20033;-61
2023/05/20 05:08:18;;;;;;;4.78;2.15;;;13.40;99.90;;;;;;4175845;28;20384;-60
2023/05/20 05:10:20;;;;;;;4.72;2.20;;;13.30;99.90;;;;;;4172131;28;20021;-61
2023/05/20 05:12:21;;;;;;;4.57;2.10;;;13.30;99.90;;;;;;4175470;28;20017;-60
2023/05/20 05:14:22;;;;;;;3.90;2.40;;;13.30;99.90;;;;;;4173124;28;20136;-60
2023/05/20 05:16:23;;;;;;;3.33;2.35;;;13.10;99.90;;;;;;4172396;28;20033;-61
2023/05/20 05:18:23;;;;;;;4.15;2.30;;;13.20;99.90;;;;;;4174348;28;20064;-61
2023/05/20 05:20:24;;;;;;;3.60;1.83;;;13.20;99.90;;;;;;4173709;28;20033;-60
2023/05/20 05:22:24;;;;;;;3.78;2.30;;;13.20;99.90;;;;;;4170951;28;20032;-60
2023/05/20 05:24:25;;;;;;;9.80;2.30;;;13.10;99.90;;;;;;4174992;28;20056;-61
2023/05/20 05:26:26;;;;;;;5.07;2.30;;;13.10;99.90;;;;;;4171699;28;20087;-61
2023/05/20 05:28:26;;;;;;;3.65;2.05;;;13.10;99.90;;;;;;4173569;28;20033;-61
2023/05/20 05:30:27;;;;;;;4.05;2.17;;;13.10;99.90;;;;;;4170498;28;20025;-61
2023/05/20 05:32:27;;;;;;;4.97;2.45;;;13.20;99.90;;;;;;4175117;28;20032;-61
2023/05/20 05:34:28;;;;;;;4.30;2.38;;;13.30;99.90;;;;;;4174717;28;20396;-61
2023/05/20 05:36:32;;;;;;;5.18;2.63;;;13.30;99.90;;;;;;4171637;28;20531;-61
2023/05/20 05:38:33;;;;;;;4.07;2.22;;;13.50;99.90;;;;;;4172285;28;20578;-64
2023/05/20 05:40:34;;;;;;;3.40;2.28;;;13.40;99.90;;;;;;4170889;28;20040;-62
2023/05/20 05:42:34;;;;;;;5.78;2.42;;;13.60;99.90;;;;;;4170623;28;20575;-61
2023/05/20 05:44:35;;;;;;;3.42;2.05;;;13.60;99.90;;;;;;4171822;28;20033;-64
2023/05/20 05:46:36;;;;;;;4.28;2.38;;;13.60;99.90;;;;;;4170875;28;20032;-64
2023/05/20 05:48:36;;;;;;;6.32;2.58;;;13.70;99.90;;;;;;4174861;28;20357;-64
2023/05/20 05:50:37;;;;;;;4.55;2.22;;;13.80;99.90;;;;;;4175066;28;20113;-64
2023/05/20 05:52:37;;;;;;;4.85;2.95;;;13.80;99.90;;;;;;4173480;28;20029;-64
2023/05/20 05:54:38;;;;;;;5.30;2.60;;;13.90;99.90;;;;;;4173029;28;20036;-64
2023/05/20 05:56:39;;;;;;;3.00;2.10;;;14.00;99.90;;;;;;4170065;28;20037;-64
2023/05/20 05:58:40;;;;;;;5.15;2.47;;;14.00;99.90;;;;;;4177128;28;20091;-63
2023/05/20 06:00:40;;;;;;;4.40;2.08;;;14.10;99.90;;;;;;4175225;28;20095;-64
2023/05/20 06:02:41;;;;;;;4.55;2.50;;;14.30;99.90;;;;;;4174430;28;20041;-64
2023/05/20 06:04:41;;;;;;;10.52;2.72;;;14.60;99.90;;;;;;4177366;28;20044;-64
2023/05/20 06:06:42;;;;;;;4.15;2.53;;;14.90;99.90;;;;;;4174310;28;20033;-64
2023/05/20 06:08:42;;;;;;;2.78;2.30;;;15.20;99.90;;;;;;4177011;28;20052;-64
2023/05/20 06:10:49;;;;;;;4.32;1.90;;;15.60;99.90;;;;;;4177711;28;20392;-64
2023/05/20 06:12:50;;;;;;;4.75;1.88;;;16.00;99.90;;;;;;4178350;28;20445;-64
2023/05/20 06:14:51;;;;;;;3.20;1.92;;;16.40;99.90;;;;;;4176743;28;20021;-63
2023/05/20 06:16:51;;;;;;;5.72;2.03;;;16.70;99.90;;;;;;4176020;28;20033;-64
2023/05/20 06:18:55;;;;;;;3.22;1.83;;;17.10;99.90;;;;;;4177668;28;20098;-64
2023/05/20 06:20:57;;;;;;;4.25;2.25;;;17.50;99.90;;;;;;4176626;28;20041;-64
2023/05/20 06:22:57;;;;;;;2.65;1.73;;;17.70;99.90;;;;;;4177044;28;20515;-65
2023/05/20 06:25:01;;;;;;;4.75;2.10;;;18.00;99.90;;;;;;4177324;28;20067;-64
2023/05/20 06:27:02;;;;;;;2.85;1.92;;;18.20;99.90;;;;;;4177827;28;20136;-64
2023/05/20 06:29:02;;;;;;;2.97;1.98;;;18.30;99.90;;;;;;4177039;28;20029;-65
2023/05/20 06:31:03;;;;;;;4.07;2.40;;;18.60;99.90;;;;;;4168215;28;20041;-65
2023/05/20 06:33:04;;;;;;;4.18;2.35;;;18.50;99.90;;;;;;4173669;28;20177;-65
2023/05/20 06:35:05;;;;;;;4.07;2.17;;;18.50;99.90;;;;;;4177298;28;20384;-66
2023/05/20 06:37:05;;;;;;;3.58;2.13;;;18.70;99.90;;;;;;4174595;28;20029;-65
2023/05/20 06:39:11;;;;;;;4.68;2.10;;;18.90;99.90;;;;;;4175254;28;20045;-66
2023/05/20 06:41:11;;;;;;;3.47;1.90;;;19.00;99.90;;;;;;4172911;28;20029;-65
2023/05/20 06:43:12;;;;;;;4.40;2.05;;;19.30;99.90;;;;;;4176284;28;20036;-66
2023/05/20 06:45:12;;;;;;;4.80;2.15;;;19.30;99.90;;;;;;4185082;28;20392;-65
2023/05/20 06:47:15;;;;;;;4.70;2.17;;;19.00;99.80;;;;;;4172725;28;20047;-65
2023/05/20 06:49:15;;;;;;;3.97;2.20;;;18.60;99.90;;;;;;4177433;28;20193;-66
2023/05/20 06:51:16;;;;;;;3.38;2.20;;;18.60;99.90;;;;;;4176169;28;20041;-66
2023/05/20 06:53:17;;;;;;;5.20;2.33;;;18.60;99.90;;;;;;4177759;28;20029;-66
2023/05/20 06:55:17;;;;;;;3.35;1.80;;;18.60;99.90;;;;;;4175434;28;20037;-66
2023/05/20 06:57:18;;;;;;;3.40;1.90;;;18.80;99.90;;;;;;4177711;28;20025;-65
2023/05/20 06:59:18;;;;;;;3.47;2.00;;;18.80;99.90;;;;;;4175113;28;20128;-65
2023/05/20 07:01:19;;;;;;;3.97;2.17;;;18.80;99.90;;;;;;4174743;28;20059;-65
2023/05/20 07:03:20;;;;;;;2.92;1.80;;;18.70;99.90;;;;;;4178172;28;20410;-66
2023/05/20 07:05:20;;;;;;;4.22;2.00;;;18.80;99.90;;;;;;4175376;28;20098;-66
2023/05/20 07:07:21;;;;;;;3.03;1.90;;;19.00;99.90;;;;;;4177232;28;20132;-65
2023/05/20 07:09:22;;;;;;;3.00;1.92;;;19.00;99.90;;;;;;4175832;28;21064;-65
2023/05/20 07:11:23;;;;;;;3.00;2.17;;;18.70;99.90;;;;;;4174457;28;20045;-65
2023/05/20 07:13:24;;;;;;;5.07;2.08;;;18.60;99.90;;;;;;4174340;28;20041;-65
2023/05/20 07:15:25;;;;;;;4.50;2.30;;;18.70;99.90;;;;;;4172264;28;20045;-65
2023/05/20 07:17:28;;;;;;;4.38;2.25;;;18.80;99.90;;;;;;4175930;28;20431;-65
2023/05/20 07:19:28;;;;;;;;;;;18.80;99.90;;;;;;4178620;28;20115;-65
2023/05/20 07:21:29;;;;;;;3.63;2.08;;;18.50;99.90;;;;;;4175817;28;20358;-65
2023/05/20 07:23:30;;;;;;;3.63;2.30;;;18.50;99.90;;;;;;4176065;28;20313;-65
2023/05/20 07:25:30;;;;;;;3.38;1.95;;;18.50;99.90;;;;;;4176835;28;20036;-65
2023/05/20 07:27:31;;;;;;;3.40;1.95;;;18.60;99.90;;;;;;4175419;28;20503;-65
2023/05/20 07:29:32;;;;;;;4.63;2.22;;;18.70;99.90;;;;;;4173673;28;20540;-65
2023/05/20 07:31:32;;;;;;;4.57;2.33;;;18.60;99.90;;;;;;4176437;28;20614;-65
2023/05/20 07:33:33;;;;;;;4.30;1.95;;;18.60;99.90;;;;;;4178274;28;20560;-65
2023/05/20 07:35:33;;;;;;;3.67;1.90;;;18.60;99.90;;;;;;4173783;28;20090;-65
2023/05/20 07:37:34;;;;;;;3.30;1.98;;;18.70;99.90;;;;;;4170441;28;20032;-65
2023/05/20 07:39:35;;;;;;;3.40;2.35;;;18.80;99.90;;;;;;4175816;28;20041;-65
2023/05/20 07:41:36;;;;;;;3.95;1.98;;;18.90;99.70;;;;;;4174713;28;20136;-65
2023/05/20 07:43:37;;;;;;;3.83;2.60;;;18.90;99.90;;;;;;4174911;28;20047;-66
2023/05/20 07:45:37;;;;;;;5.78;2.35;;;18.90;99.90;;;;;;4173606;28;20057;-66
2023/05/20 07:47:38;;;;;;;2.97;1.90;;;19.00;99.90;;;;;;4174479;28;20331;-65
2023/05/20 07:49:39;;;;;;;5.20;2.30;;;19.00;99.90;;;;;;4173111;28;20040;-66
2023/05/20 07:51:39;;;;;;;3.92;2.30;;;19.10;99.90;;;;;;4175191;28;20033;-65
2023/05/20 07:53:40;;;;;;;8.32;2.78;;;18.80;98.80;;;;;;4175764;28;20029;-66
2023/05/20 07:55:40;;;;;;;6.38;2.40;;;18.60;98.50;;;;;;4173826;28;20022;-65
2023/05/20 07:57:41;;;;;;;4.82;2.50;;;18.60;99.50;;;;;;4175080;28;20087;-65
2023/05/20 07:59:41;;;;;;;4.68;2.20;;;18.70;99.70;;;;;;4173345;28;20032;-65
2023/05/20 08:01:42;;;;;;;7.55;2.40;;;18.40;99.10;;;;;;4170394;28;20048;-65
2023/05/20 08:03:43;;;;;;;5.63;2.30;;;18.40;99.90;;;;;;4175418;28;20032;-65
2023/05/20 08:05:43;;;;;;;3.53;2.25;;;18.10;98.80;;;;;;4173334;28;20073;-65
2023/05/20 08:07:44;;;;;;;5.00;2.05;;;17.80;99.80;;;;;;4175262;28;20037;-65
2023/05/20 08:09:44;;;;;;;5.78;2.20;;;17.90;99.90;;;;;;4176592;28;20033;-65
2023/05/20 08:11:45;;;;;;;5.18;2.58;;;17.90;99.90;;;;;;4176205;28;20040;-65
2023/05/20 08:13:46;;;;;;;4.55;2.60;;;17.70;99.90;;;;;;4176737;28;20037;-67
2023/05/20 08:15:47;;;;;;;3.38;2.30;;;17.60;99.90;;;;;;4172653;28;20135;-65
2023/05/20 08:17:48;;;;;;;9.82;2.75;;;17.40;99.90;;;;;;4176708;28;20083;-66
2023/05/20 08:19:48;;;;;;;3.45;2.40;;;17.40;99.90;;;;;;4176025;28;20500;-65
2023/05/20 08:21:49;;;;;;;4.88;2.70;;;17.40;99.90;;;;;;4174951;28;20041;-65
2023/05/20 08:23:49;;;;;;;4.55;2.90;;;17.40;99.90;;;;;;4176545;28;20104;-66
2023/05/20 08:25:50;;;;;;;4.43;2.40;;;17.20;99.90;;;;;;4174929;28;20496;-66
2023/05/20 08:27:51;;;;;;;3.90;2.80;;;17.30;99.90;;;;;;4175159;28;20369;-66
2023/05/20 08:29:51;;;;;;;5.13;2.95;;;17.20;99.90;;;;;;4176569;28;20033;-65
2023/05/20 08:31:52;;;;;;;3.28;2.42;;;17.20;99.90;;;;;;4175032;28;20154;-65
2023/05/20 08:33:53;;;;;;;4.30;2.75;;;17.10;99.90;;;;;;4176194;28;20036;-65
2023/05/20 08:35:53;;;;;;;5.13;2.70;;;17.30;99.90;;;;;;4175659;28;20029;-65
2023/05/20 08:37:54;;;;;;;5.43;2.88;;;17.30;99.90;;;;;;4174070;28;20032;-65
2023/05/20 08:39:55;;;;;;;5.78;3.10;;;17.30;99.90;;;;;;4176388;28;20025;-65
2023/05/20 08:41:56;;;;;;;3.83;2.78;;;17.50;99.90;;;;;;4174023;28;20041;-65
2023/05/20 08:44:01;;;;;;;5.23;3.00;;;17.50;99.90;;;;;;4176388;28;20044;-65
2023/05/20 08:46:04;;;;;;;4.32;2.85;;;17.60;99.90;;;;;;4172851;28;20025;-65
2023/05/20 08:48:04;;;;;;;;;;;17.70;99.90;;;;;;4176136;28;20120;-65
2023/05/20 08:50:05;;;;;;;7.50;3.97;;;17.60;99.90;;;;;;4172744;28;19916;-66
2023/05/20 08:52:10;;;;;;;10.60;3.80;;;17.60;99.90;;;;;;4174137;28;20125;-65
2023/05/20 08:54:12;;;;;;;4.20;3.50;;;17.50;99.90;;;;;;4172962;28;20029;-65
2023/05/20 08:56:15;;;;;;;4.27;3.13;;;17.30;99.90;;;;;;4170557;28;20037;-65
2023/05/20 08:58:18;;;;;;;5.45;3.25;;;17.40;99.90;;;;;;4172564;28;20064;-65
2023/05/20 09:00:26;;;;;;;4.93;3.17;;;17.30;99.90;;;;;;4170901;28;20033;-65
2023/05/20 09:02:26;;;;;;;6.00;3.67;;;17.40;99.90;;;;;;4173284;28;20036;-65
2023/05/20 09:04:27;;;;;;;7.00;3.75;;;17.30;99.90;;;;;;4176194;28;20065;-64
2023/05/20 09:06:28;;;;;;;5.70;3.60;;;17.20;99.90;;;;;;4173965;28;20033;-65
2023/05/20 09:08:29;;;;;;;4.85;3.40;;;17.30;99.90;;;;;;4172250;28;20025;-65
2023/05/20 09:10:30;;;;;;;5.88;3.33;;;17.40;99.90;;;;;;4174631;28;20029;-65
2023/05/20 09:12:31;;;;;;;6.93;3.83;;;17.40;99.90;;;;;;4168755;28;20033;-64
2023/05/20 09:14:31;;;;;;;5.60;3.78;;;17.40;99.90;;;;;;4166031;28;20147;-64
2023/05/20 09:16:33;;;;;;;8.90;3.90;;;17.30;99.90;;;;;;4171490;28;20029;-65
2023/05/20 09:18:37;;;;;;;5.40;3.30;;;17.50;99.90;;;;;;4174691;28;20064;-65
2023/05/20 09:20:37;;;;;;;6.10;3.10;;;17.50;99.90;;;;;;4172678;28;20033;-66
2023/05/20 09:22:39;;;;;;;8.13;4.00;;;17.70;99.90;;;;;;4175827;28;20441;-65
2023/05/20 09:24:40;;;;;;;7.18;3.58;;;17.80;99.90;;;;;;4172621;28;20021;-65
2023/05/20 09:26:40;;;;;;;4.78;3.28;;;17.80;99.90;;;;;;4170844;28;20033;-65
2023/05/20 09:28:41;;;;;;;5.55;3.33;;;17.90;99.90;;;;;;4172242;28;20472;-64
2023/05/20 09:30:42;;;;;;;5.75;3.88;;;17.90;99.90;;;;;;4172635;28;20079;-65
2023/05/20 09:32:42;;;;;;;4.30;3.10;;;17.80;99.90;;;;;;4174965;28;20029;-65
2023/05/20 09:34:45;;;;;;;5.68;3.63;;;18.00;99.90;;;;;;4174201;28;20052;-65
2023/05/20 09:36:49;;;;;;;8.38;3.70;;;18.10;99.90;;;;;;4173169;28;20357;-65
2023/05/20 09:38:58;;;;;;;5.93;3.85;;;18.00;99.90;;;;;;4170895;28;20486;-65
2023/05/20 09:41:01;;;;;;;8.93;4.10;;;18.00;99.90;;;;;;4172137;28;20033;-65
2023/05/20 09:43:03;;;;;;;9.13;3.67;;;17.90;99.90;;;;;;4174114;28;20025;-65
2023/05/20 09:45:08;;;;;;;7.85;3.80;;;17.90;99.90;;;;;;4172668;28;20022;-66
2023/05/20 09:47:08;;;;;;;10.95;4.18;;;18.00;99.90;;;;;;4173499;28;20035;-65
2023/05/20 09:49:11;;;;;;;7.70;4.75;;;18.00;99.90;;;;;;4173392;28;20060;-65
2023/05/20 09:51:13;;;;;;;5.55;3.75;;;18.00;99.90;;;;;;4169538;28;20422;-65
2023/05/20 09:53:15;;;;;;;7.13;4.00;;;18.00;99.90;;;;;;4173043;28;20118;-65
2023/05/20 09:55:18;;;;;;;7.73;4.53;;;18.10;99.90;;;;;;4172206;28;20045;-64
2023/05/20 09:57:19;;;;;;;6.88;4.35;;;17.90;99.90;;;;;;4172063;28;20463;-65
2023/05/20 09:59:21;;;;;;;9.57;4.50;;;17.80;99.90;;;;;;4172954;28;20044;-65
2023/05/20 10:01:21;;;;;;;10.35;4.22;;;17.80;99.90;;;;;;4168210;28;20033;-65
2023/05/20 10:03:23;;;;;;;7.28;4.22;;;17.90;99.90;;;;;;4173477;28;20060;-65
2023/05/20 10:05:30;;;;;;;8.80;3.83;;;18.00;99.90;;;;;;4174849;28;20488;-65
2023/05/20 10:07:49;;;;;;;11.45;4.50;;;18.10;99.90;;;;;;4175083;28;20040;-65
2023/05/20 10:10:07;;;;;;;7.53;4.75;;;18.10;99.90;;;;;;4170375;28;20036;-66
2023/05/20 10:12:45;;;;;;;7.38;3.95;;;17.90;99.90;;;;;;4170473;28;20055;-66
2023/05/20 10:15:17;;;;;;;6.07;4.35;;;18.10;99.90;;;;;;4173218;28;20037;-65
2023/05/20 10:17:26;;;;;;;8.70;3.78;;;17.90;99.90;;;;;;4177204;28;20037;-65
2023/05/20 10:19:29;;;;;;;4.35;3.50;;;18.00;99.90;;;;;;4173597;28;20060;-65
2023/05/20 10:21:31;;;;;;;9.10;4.38;;;18.10;99.90;;;;;;4174114;28;20116;-65
2023/05/20 10:23:31;;;;;;;7.40;3.43;;;18.20;99.90;;;;;;4174150;28;20117;-65
2023/05/20 10:25:32;;;;;;;8.52;4.05;;;18.20;99.90;;;;;;4172429;28;20060;-65
2023/05/20 10:27:46;;;;;;;6.47;4.00;;;18.30;99.90;;;;;;4173180;28;20048;-65
2023/05/20 10:29:55;;;;;;;7.47;4.47;;;18.20;99.90;;;;;;4173939;28;20060;-65
2023/05/20 10:31:56;;;;;;;5.00;3.97;;;18.30;99.90;;;;;;4173598;28;20033;-65
2023/05/20 10:33:58;;;;;;;9.40;4.15;;;18.40;99.90;;;;;;4174813;28;20052;-65